sensor_id;sensor_type;location;lat;lon;timestamp;pressure;altitude;pressure_sealevel;temperature;humidity
19447;BME280;9862;49.462;11.054;2023-01-30T00:02:25;98577.47;;;2.15;100.00
19447;BME280;9862;49.462;11.054;2023-01-30T00:04:53;98568.50;;;2.08;100.00
19447;BME280;9862;49.462;11.054;2023-01-30T00:07:19;98564.78;;;2.01;100.00
19447;BME280;9862;49.462;11.054;2023-01-30T00:09:46;98561.75;;;2.06;100.00
19447;BME280;9862;49.462;11.054;2023-01-30T00:12:12;98554.69;;;2.06;100.00
19447;BME280;9862;49.462;11.054;2023-01-30T00:14:39;98551.41;;;1.94;100.00
19447;BME280;9862;49.462;11.054;2023-01-30T00:17:05;98543.91;;;1.99;100.00
19447;BME280;9862;49.462;11.054;2023-01-30T00:19:32;98537.84;;;1.99;100.00
19447;BME280;9862;49.462;11.054;2023-01-30T00:22:00;98508.81;;;2.00;100.00
19447;BME280;9862;49.462;11.054;2023-01-30T00:24:27;98521.25;;;2.08;100.00
19447;BME280;9862;49.462;11.054;2023-01-30T00:26:53;98518.75;;;2.16;100.00
19447;BME280;9862;49.462;11.054;2023-01-30T00:29:20;98518.44;;;2.19;100.00
19447;BME280;9862;49.462;11.054;2023-01-30T00:31:47;98527.97;;;2.20;100.00
19447;BME280;9862;49.462;11.054;2023-01-30T00:34:13;98526.31;;;2.19;100.00
19447;BME280;9862;49.462;11.054;2023-01-30T00:36:40;98525.34;;;2.20;100.00
19447;BME280;9862;49.462;11.054;2023-01-30T00:39:08;98530.84;;;2.27;100.00
19447;BME280;9862;49.462;11.054;2023-01-30T00:41:34;98541.66;;;2.24;100.00
19447;BME280;9862;49.462;11.054;2023-01-30T00:44:15;98541.34;;;2.27;100.00
19447;BME280;9862;49.462;11.054;2023-01-30T00:46:59;98545.22;;;2.33;100.00
19447;BME280;9862;49.462;11.054;2023-01-30T00:49:33;98564.66;;;2.40;100.00
19447;BME280;9862;49.462;11.054;2023-01-30T00:52:00;98567.56;;;2.46;100.00
19447;BME280;9862;49.462;11.054;2023-01-30T00:54:28;98570.03;;;2.48;100.00
19447;BME280;9862;49.462;11.054;2023-01-30T00:56:55;98583.03;;;2.49;100.00
19447;BME280;9862;49.462;11.054;2023-01-30T00:59:22;98580.50;;;2.57;100.00
19447;BME280;9862;49.462;11.054;2023-01-30T01:01:48;98584.38;;;2.63;100.00
19447;BME280;9862;49.462;11.054;2023-01-30T01:04:15;98583.75;;;2.69;100.00
19447;BME280;9862;49.462;11.054;2023-01-30T01:06:42;98584.84;;;2.76;100.00
19447;BME280;9862;49.462;11.054;2023-01-30T01:09:08;98576.28;;;2.74;100.00
19447;BME280;9862;49.462;11.054;2023-01-30T01:11:36;98583.19;;;2.75;100.00
19447;BME280;9862;49.462;11.054;2023-01-30T01:14:05;98569.19;;;2.84;100.00
19447;BME280;9862;49.462;11.054;2023-01-30T01:16:35;98568.78;;;2.79;100.00
19447;BME280;9862;49.462;11.054;2023-01-30T01:19:02;98566.75;;;2.73;100.00
19447;BME280;9862;49.462;11.054;2023-01-30T01:21:29;98574.63;;;2.73;100.00
19447;BME280;9862;49.462;11.054;2023-01-30T01:23:57;98566.66;;;2.18;100.00
19447;BME280;9862;49.462;11.054;2023-01-30T01:26:24;98563.16;;;1.71;100.00
19447;BME280;9862;49.462;11.054;2023-01-30T01:28:54;98575.88;;;1.37;100.00
19447;BME280;9862;49.462;11.054;2023-01-30T01:31:21;98574.63;;;1.41;100.00
19447;BME280;9862;49.462;11.054;2023-01-30T01:33:48;98569.91;;;1.35;100.00
19447;BME280;9862;49.462;11.054;2023-01-30T01:36:15;98565.22;;;1.09;100.00
19447;BME280;9862;49.462;11.054;2023-01-30T01:38:42;98555.09;;;0.95;100.00
19447;BME280;9862;49.462;11.054;2023-01-30T01:41:09;98557.41;;;0.69;100.00
19447;BME280;9862;49.462;11.054;2023-01-30T01:43:36;98556.56;;;0.69;100.00
19447;BME280;9862;49.462;11.054;2023-01-30T01:46:08;98543.25;;;0.41;100.00
19447;BME280;9862;49.462;11.054;2023-01-30T01:48:37;98529.97;;;0.33;100.00
19447;BME280;9862;49.462;11.054;2023-01-30T01:51:08;98510.75;;;0.53;100.00
19447;BME280;9862;49.462;11.054;2023-01-30T01:53:40;98508.78;;;0.36;100.00
19447;BME280;9862;49.462;11.054;2023-01-30T01:56:09;98518.44;;;0.45;100.00
19447;BME280;9862;49.462;11.054;2023-01-30T01:58:42;98516.28;;;0.50;100.00
19447;BME280;9862;49.462;11.054;2023-01-30T02:01:12;98517.00;;;0.72;100.00
19447;BME280;9862;49.462;11.054;2023-01-30T02:03:43;98517.34;;;0.88;100.00
19447;BME280;9862;49.462;11.054;2023-01-30T02:06:11;98502.16;;;1.01;100.00
19447;BME280;9862;49.462;11.054;2023-01-30T02:08:43;98484.09;;;0.98;100.00
19447;BME280;9862;49.462;11.054;2023-01-30T02:11:16;98487.38;;;0.81;100.00
19447;BME280;9862;49.462;11.054;2023-01-30T02:13:47;98480.06;;;0.84;100.00
19447;BME280;9862;49.462;11.054;2023-01-30T02:16:16;98456.63;;;0.83;100.00
19447;BME280;9862;49.462;11.054;2023-01-30T02:18:44;98465.47;;;0.92;100.00
19447;BME280;9862;49.462;11.054;2023-01-30T02:21:26;98460.78;;;1.05;100.00
19447;BME280;9862;49.462;11.054;2023-01-30T02:24:18;98463.00;;;1.00;100.00
19447;BME280;9862;49.462;11.054;2023-01-30T02:27:08;98454.84;;;0.93;100.00
19447;BME280;9862;49.462;11.054;2023-01-30T02:32:45;98418.59;;;0.98;100.00
19447;BME280;9862;49.462;11.054;2023-01-30T02:35:24;98385.63;;;0.86;100.00
19447;BME280;9862;49.462;11.054;2023-01-30T02:38:02;98387.69;;;0.82;100.00
19447;BME280;9862;49.462;11.054;2023-01-30T02:40:40;98399.44;;;0.88;100.00
19447;BME280;9862;49.462;11.054;2023-01-30T02:43:16;98414.31;;;0.97;100.00
19447;BME280;9862;49.462;11.054;2023-01-30T02:45:51;98426.03;;;0.93;100.00
19447;BME280;9862;49.462;11.054;2023-01-30T02:48:24;98424.25;;;0.84;100.00
19447;BME280;9862;49.462;11.054;2023-01-30T02:50:56;98417.88;;;0.77;100.00
19447;BME280;9862;49.462;11.054;2023-01-30T02:53:26;98413.22;;;0.90;100.00
19447;BME280;9862;49.462;11.054;2023-01-30T02:55:55;98406.84;;;1.02;100.00
19447;BME280;9862;49.462;11.054;2023-01-30T02:58:23;98400.25;;;0.98;100.00
19447;BME280;9862;49.462;11.054;2023-01-30T03:01:14;98397.63;;;0.89;100.00
19447;BME280;9862;49.462;11.054;2023-01-30T03:03:56;98416.22;;;0.85;100.00
19447;BME280;9862;49.462;11.054;2023-01-30T03:06:41;98406.03;;;0.82;100.00
19447;BME280;9862;49.462;11.054;2023-01-30T03:09:17;98388.38;;;0.94;100.00
19447;BME280;9862;49.462;11.054;2023-01-30T03:11:53;98386.19;;;1.09;100.00
19447;BME280;9862;49.462;11.054;2023-01-30T03:14:25;98376.34;;;1.21;100.00
19447;BME280;9862;49.462;11.054;2023-01-30T03:16:57;98374.75;;;1.00;100.00
19447;BME280;9862;49.462;11.054;2023-01-30T03:19:27;98355.00;;;0.86;100.00
19447;BME280;9862;49.462;11.054;2023-01-30T03:21:54;98358.88;;;0.92;100.00
19447;BME280;9862;49.462;11.054;2023-01-30T03:24:28;98346.88;;;0.99;100.00
19447;BME280;9862;49.462;11.054;2023-01-30T03:26:58;98339.81;;;1.09;100.00
19447;BME280;9862;49.462;11.054;2023-01-30T03:29:27;98338.72;;;1.12;100.00
19447;BME280;9862;49.462;11.054;2023-01-30T03:31:54;98311.41;;;1.05;100.00
19447;BME280;9862;49.462;11.054;2023-01-30T03:34:21;98335.13;;;1.03;100.00
19447;BME280;9862;49.462;11.054;2023-01-30T03:36:50;98328.41;;;0.91;100.00
19447;BME280;9862;49.462;11.054;2023-01-30T03:39:16;98331.00;;;1.10;100.00
19447;BME280;9862;49.462;11.054;2023-01-30T03:41:43;98326.13;;;1.15;100.00
19447;BME280;9862;49.462;11.054;2023-01-30T03:44:10;98339.28;;;0.96;100.00
19447;BME280;9862;49.462;11.054;2023-01-30T03:46:36;98330.47;;;1.07;100.00
19447;BME280;9862;49.462;11.054;2023-01-30T03:49:03;98332.94;;;1.08;100.00
19447;BME280;9862;49.462;11.054;2023-01-30T03:51:30;98319.53;;;1.11;100.00
19447;BME280;9862;49.462;11.054;2023-01-30T03:53:58;98315.81;;;1.04;100.00
19447;BME280;9862;49.462;11.054;2023-01-30T03:56:24;98312.28;;;0.86;100.00
19447;BME280;9862;49.462;11.054;2023-01-30T03:58:51;98304.28;;;0.97;100.00
19447;BME280;9862;49.462;11.054;2023-01-30T04:01:18;98315.56;;;1.07;100.00
19447;BME280;9862;49.462;11.054;2023-01-30T04:03:45;98302.88;;;1.03;100.00
19447;BME280;9862;49.462;11.054;2023-01-30T04:06:12;98308.81;;;0.95;100.00
19447;BME280;9862;49.462;11.054;2023-01-30T04:08:38;98321.22;;;0.93;100.00
19447;BME280;9862;49.462;11.054;2023-01-30T04:11:07;98318.59;;;0.93;100.00
19447;BME280;9862;49.462;11.054;2023-01-30T04:13:36;98328.25;;;0.93;100.00
19447;BME280;9862;49.462;11.054;2023-01-30T04:16:17;98323.44;;;0.98;100.00
19447;BME280;9862;49.462;11.054;2023-01-30T04:18:44;98321.50;;;1.00;100.00
19447;BME280;9862;49.462;11.054;2023-01-30T04:21:10;98339.28;;;0.86;100.00
19447;BME280;9862;49.462;11.054;2023-01-30T04:23:38;98335.47;;;0.71;100.00
19447;BME280;9862;49.462;11.054;2023-01-30T04:26:08;98321.38;;;0.82;100.00
19447;BME280;9862;49.462;11.054;2023-01-30T04:28:35;98319.72;;;0.91;100.00
19447;BME280;9862;49.462;11.054;2023-01-30T04:31:02;98318.06;;;0.90;100.00
19447;BME280;9862;49.462;11.054;2023-01-30T04:33:29;98317.25;;;0.89;100.00
19447;BME280;9862;49.462;11.054;2023-01-30T04:36:00;98326.09;;;0.88;100.00
19447;BME280;9862;49.462;11.054;2023-01-30T04:38:28;98319.19;;;0.87;100.00
19447;BME280;9862;49.462;11.054;2023-01-30T04:40:56;98313.69;;;0.80;100.00
19447;BME280;9862;49.462;11.054;2023-01-30T04:43:25;98320.84;;;0.88;100.00
19447;BME280;9862;49.462;11.054;2023-01-30T04:45:53;98330.22;;;0.91;100.00
19447;BME280;9862;49.462;11.054;2023-01-30T04:48:21;98322.63;;;0.97;100.00
19447;BME280;9862;49.462;11.054;2023-01-30T04:50:50;98305.00;;;0.80;100.00
19447;BME280;9862;49.462;11.054;2023-01-30T04:53:17;98319.44;;;0.84;100.00
19447;BME280;9862;49.462;11.054;2023-01-30T04:55:45;98327.44;;;0.92;100.00
19447;BME280;9862;49.462;11.054;2023-01-30T04:58:12;98308.97;;;0.94;100.00
19447;BME280;9862;49.462;11.054;2023-01-30T05:00:42;98329.53;;;0.89;100.00
19447;BME280;9862;49.462;11.054;2023-01-30T05:03:08;98296.03;;;0.82;100.00
19447;BME280;9862;49.462;11.054;2023-01-30T05:05:35;98275.06;;;0.82;100.00
19447;BME280;9862;49.462;11.054;2023-01-30T05:08:09;98275.22;;;0.81;100.00
19447;BME280;9862;49.462;11.054;2023-01-30T05:10:45;98274.66;;;0.87;100.00
19447;BME280;9862;49.462;11.054;2023-01-30T05:13:12;98273.41;;;0.91;100.00
19447;BME280;9862;49.462;11.054;2023-01-30T05:15:39;98277.00;;;0.80;100.00
19447;BME280;9862;49.462;11.054;2023-01-30T05:18:07;98276.16;;;0.90;100.00
19447;BME280;9862;49.462;11.054;2023-01-30T05:20:33;98278.94;;;0.88;100.00
19447;BME280;9862;49.462;11.054;2023-01-30T05:23:00;98275.19;;;0.91;100.00
19447;BME280;9862;49.462;11.054;2023-01-30T05:25:26;98262.78;;;0.83;100.00
19447;BME280;9862;49.462;11.054;2023-01-30T05:27:53;98265.56;;;0.81;100.00
19447;BME280;9862;49.462;11.054;2023-01-30T05:30:21;98265.91;;;0.96;100.00
19447;BME280;9862;49.462;11.054;2023-01-30T05:32:47;98278.34;;;0.94;100.00
19447;BME280;9862;49.462;11.054;2023-01-30T05:35:15;98277.94;;;0.89;100.00
19447;BME280;9862;49.462;11.054;2023-01-30T05:37:42;98271.06;;;0.88;100.00
19447;BME280;9862;49.462;11.054;2023-01-30T05:40:10;98273.69;;;0.78;100.00
19447;BME280;9862;49.462;11.054;2023-01-30T05:42:36;98280.03;;;0.76;100.00
19447;BME280;9862;49.462;11.054;2023-01-30T05:45:04;98277.41;;;0.76;100.00
19447;BME280;9862;49.462;11.054;2023-01-30T05:47:30;98275.78;;;0.65;100.00
19447;BME280;9862;49.462;11.054;2023-01-30T05:49:57;98280.59;;;0.70;100.00
19447;BME280;9862;49.462;11.054;2023-01-30T05:52:25;98278.81;;;0.61;100.00
19447;BME280;9862;49.462;11.054;2023-01-30T05:54:52;98282.25;;;0.71;100.00
19447;BME280;9862;49.462;11.054;2023-01-30T05:57:18;98272.91;;;0.68;100.00
19447;BME280;9862;49.462;11.054;2023-01-30T05:59:45;98262.69;;;0.55;100.00
19447;BME280;9862;49.462;11.054;2023-01-30T06:02:11;98258.00;;;0.69;100.00
19447;BME280;9862;49.462;11.054;2023-01-30T06:04:38;98238.53;;;0.81;100.00
19447;BME280;9862;49.462;11.054;2023-01-30T06:07:05;98249.72;;;0.73;100.00
19447;BME280;9862;49.462;11.054;2023-01-30T06:09:33;98239.38;;;0.72;100.00
19447;BME280;9862;49.462;11.054;2023-01-30T06:12:00;98242.56;;;0.66;100.00
19447;BME280;9862;49.462;11.054;2023-01-30T06:14:26;98235.97;;;0.62;100.00
19447;BME280;9862;49.462;11.054;2023-01-30T06:16:53;98246.59;;;0.60;100.00
19447;BME280;9862;49.462;11.054;2023-01-30T06:19:19;98249.72;;;0.73;100.00
19447;BME280;9862;49.462;11.054;2023-01-30T06:21:46;98248.59;;;0.76;100.00
19447;BME280;9862;49.462;11.054;2023-01-30T06:24:12;98257.44;;;0.75;100.00
19447;BME280;9862;49.462;11.054;2023-01-30T06:26:41;98259.63;;;0.79;100.00
19447;BME280;9862;49.462;11.054;2023-01-30T06:29:08;98251.63;;;0.81;100.00
19447;BME280;9862;49.462;11.054;2023-01-30T06:31:34;98254.63;;;0.86;100.00
19447;BME280;9862;49.462;11.054;2023-01-30T06:34:01;98245.84;;;0.87;100.00
19447;BME280;9862;49.462;11.054;2023-01-30T06:36:27;98252.00;;;0.96;100.00
19447;BME280;9862;49.462;11.054;2023-01-30T06:38:54;98260.00;;;0.94;100.00
19447;BME280;9862;49.462;11.054;2023-01-30T06:41:21;98264.66;;;1.10;100.00
19447;BME280;9862;49.462;11.054;2023-01-30T06:43:49;98261.31;;;1.18;100.00
19447;BME280;9862;49.462;11.054;2023-01-30T06:46:15;98271.97;;;1.06;100.00
19447;BME280;9862;49.462;11.054;2023-01-30T06:48:42;98279.81;;;1.16;100.00
19447;BME280;9862;49.462;11.054;2023-01-30T06:51:08;98276.44;;;1.24;100.00
19447;BME280;9862;49.462;11.054;2023-01-30T06:53:35;98261.44;;;1.26;100.00
19447;BME280;9862;49.462;11.054;2023-01-30T06:56:02;98265.25;;;1.31;100.00
19447;BME280;9862;49.462;11.054;2023-01-30T06:58:28;98263.88;;;1.37;100.00
19447;BME280;9862;49.462;11.054;2023-01-30T07:00:56;98256.97;;;1.36;100.00
19447;BME280;9862;49.462;11.054;2023-01-30T07:03:23;98254.50;;;1.25;100.00
19447;BME280;9862;49.462;11.054;2023-01-30T07:05:50;98253.13;;;1.30;100.00
19447;BME280;9862;49.462;11.054;2023-01-30T07:08:16;98242.13;;;1.27;100.00
19447;BME280;9862;49.462;11.054;2023-01-30T07:10:43;98243.47;;;1.31;100.00
19447;BME280;9862;49.462;11.054;2023-01-30T07:13:11;98241.38;;;1.34;100.00
19447;BME280;9862;49.462;11.054;2023-01-30T07:15:37;98248.50;;;1.42;100.00
19447;BME280;9862;49.462;11.054;2023-01-30T07:18:05;98236.56;;;1.30;100.00
19447;BME280;9862;49.462;11.054;2023-01-30T07:20:32;98235.53;;;1.13;100.00
19447;BME280;9862;49.462;11.054;2023-01-30T07:22:59;98231.38;;;1.20;100.00
19447;BME280;9862;49.462;11.054;2023-01-30T07:25:27;98238.47;;;1.37;100.00
19447;BME280;9862;49.462;11.054;2023-01-30T07:27:55;98232.59;;;1.26;100.00
19447;BME280;9862;49.462;11.054;2023-01-30T07:30:22;98235.13;;;1.18;100.00
19447;BME280;9862;49.462;11.054;2023-01-30T07:32:49;98229.59;;;1.11;100.00
19447;BME280;9862;49.462;11.054;2023-01-30T07:35:17;98222.53;;;1.21;100.00
19447;BME280;9862;49.462;11.054;2023-01-30T07:37:45;98212.03;;;1.21;100.00
19447;BME280;9862;49.462;11.054;2023-01-30T07:40:12;98203.47;;;1.29;100.00
19447;BME280;9862;49.462;11.054;2023-01-30T07:42:39;98210.06;;;1.33;100.00
19447;BME280;9862;49.462;11.054;2023-01-30T07:45:07;98213.94;;;1.01;100.00
19447;BME280;9862;49.462;11.054;2023-01-30T07:47:34;98209.34;;;1.03;100.00
19447;BME280;9862;49.462;11.054;2023-01-30T07:50:01;98184.59;;;1.15;100.00
19447;BME280;9862;49.462;11.054;2023-01-30T07:52:29;98168.41;;;1.30;100.00
19447;BME280;9862;49.462;11.054;2023-01-30T07:54:56;98158.91;;;1.29;100.00
19447;BME280;9862;49.462;11.054;2023-01-30T07:57:23;98183.66;;;1.17;100.00
19447;BME280;9862;49.462;11.054;2023-01-30T07:59:49;98168.94;;;1.33;100.00
19447;BME280;9862;49.462;11.054;2023-01-30T08:02:16;98171.78;;;1.40;100.00
19447;BME280;9862;49.462;11.054;2023-01-30T08:04:42;98166.94;;;1.45;100.00
19447;BME280;9862;49.462;11.054;2023-01-30T08:07:09;98160.56;;;1.48;100.00
19447;BME280;9862;49.462;11.054;2023-01-30T08:09:37;98162.59;;;1.36;100.00
19447;BME280;9862;49.462;11.054;2023-01-30T08:12:04;98148.78;;;1.34;100.00
19447;BME280;9862;49.462;11.054;2023-01-30T08:14:30;98152.69;;;1.30;100.00
19447;BME280;9862;49.462;11.054;2023-01-30T08:16:57;98169.19;;;1.40;100.00
19447;BME280;9862;49.462;11.054;2023-01-30T08:19:23;98162.59;;;1.36;100.00
19447;BME280;9862;49.462;11.054;2023-01-30T08:21:50;98162.28;;;1.39;100.00
19447;BME280;9862;49.462;11.054;2023-01-30T08:24:16;98153.97;;;1.43;100.00
19447;BME280;9862;49.462;11.054;2023-01-30T08:26:46;98140.78;;;1.53;100.00
19447;BME280;9862;49.462;11.054;2023-01-30T08:29:13;98141.19;;;1.58;100.00
19447;BME280;9862;49.462;11.054;2023-01-30T08:31:39;98142.91;;;1.67;100.00
19447;BME280;9862;49.462;11.054;2023-01-30T08:34:06;98146.94;;;1.62;100.00
19447;BME280;9862;49.462;11.054;2023-01-30T08:36:32;98142.50;;;1.62;100.00
19447;BME280;9862;49.462;11.054;2023-01-30T08:38:59;98138.16;;;1.53;100.00
19447;BME280;9862;49.462;11.054;2023-01-30T08:41:26;98132.41;;;1.50;100.00
19447;BME280;9862;49.462;11.054;2023-01-30T08:43:54;98142.16;;;1.57;100.00
19447;BME280;9862;49.462;11.054;2023-01-30T08:46:20;98128.22;;;1.57;100.00
19447;BME280;9862;49.462;11.054;2023-01-30T08:48:47;98135.25;;;1.56;100.00
19447;BME280;9862;49.462;11.054;2023-01-30T08:51:14;98150.31;;;1.72;100.00
19447;BME280;9862;49.462;11.054;2023-01-30T08:53:40;98123.94;;;1.56;100.00
19447;BME280;9862;49.462;11.054;2023-01-30T08:56:07;98131.94;;;1.54;100.00
19447;BME280;9862;49.462;11.054;2023-01-30T08:58:34;98126.09;;;1.42;100.00
19447;BME280;9862;49.462;11.054;2023-01-30T09:01:05;98109.75;;;1.31;100.00
19447;BME280;9862;49.462;11.054;2023-01-30T09:03:32;98128.03;;;1.23;100.00
19447;BME280;9862;49.462;11.054;2023-01-30T09:05:59;98137.25;;;1.27;100.00
19447;BME280;9862;49.462;11.054;2023-01-30T09:08:26;98141.53;;;1.28;100.00
19447;BME280;9862;49.462;11.054;2023-01-30T09:10:56;98140.00;;;1.25;100.00
19447;BME280;9862;49.462;11.054;2023-01-30T09:13:23;98141.72;;;1.17;100.00
19447;BME280;9862;49.462;11.054;2023-01-30T09:15:49;98144.34;;;1.17;100.00
19447;BME280;9862;49.462;11.054;2023-01-30T09:18:17;98155.81;;;1.06;100.00
19447;BME280;9862;49.462;11.054;2023-01-30T09:20:44;98144.94;;;1.10;100.00
19447;BME280;9862;49.462;11.054;2023-01-30T09:23:11;98145.69;;;1.21;100.00
19447;BME280;9862;49.462;11.054;2023-01-30T09:25:38;98133.41;;;1.21;100.00
19447;BME280;9862;49.462;11.054;2023-01-30T09:28:04;98132.84;;;1.27;100.00
19447;BME280;9862;49.462;11.054;2023-01-30T09:30:31;98119.09;;;1.15;100.00
19447;BME280;9862;49.462;11.054;2023-01-30T09:32:57;98143.59;;;1.24;100.00
19447;BME280;9862;49.462;11.054;2023-01-30T09:35:25;98129.44;;;1.35;100.00
19447;BME280;9862;49.462;11.054;2023-01-30T09:37:52;98119.22;;;1.41;100.00
19447;BME280;9862;49.462;11.054;2023-01-30T09:40:20;98118.59;;;1.30;100.00
19447;BME280;9862;49.462;11.054;2023-01-30T09:43:00;98116.34;;;1.35;100.00
19447;BME280;9862;49.462;11.054;2023-01-30T09:45:39;98128.06;;;1.40;100.00
19447;BME280;9862;49.462;11.054;2023-01-30T09:48:14;98116.06;;;1.38;100.00
19447;BME280;9862;49.462;11.054;2023-01-30T09:54:02;98115.19;;;1.47;100.00
19447;BME280;9862;49.462;11.054;2023-01-30T09:56:30;98126.66;;;1.46;100.00
19447;BME280;9862;49.462;11.054;2023-01-30T09:58:58;98108.66;;;1.51;100.00
19447;BME280;9862;49.462;11.054;2023-01-30T10:01:29;98103.09;;;1.54;100.00
19447;BME280;9862;49.462;11.054;2023-01-30T10:04:10;98109.41;;;1.61;100.00
19447;BME280;9862;49.462;11.054;2023-01-30T10:06:43;98103.31;;;1.61;100.00
19447;BME280;9862;49.462;11.054;2023-01-30T10:09:22;98099.44;;;1.65;100.00
19447;BME280;9862;49.462;11.054;2023-01-30T10:12:01;98083.56;;;1.66;100.00
19447;BME280;9862;49.462;11.054;2023-01-30T10:14:40;98087.50;;;1.70;100.00
19447;BME280;9862;49.462;11.054;2023-01-30T10:17:26;98084.66;;;1.82;100.00
19447;BME280;9862;49.462;11.054;2023-01-30T10:20:06;98088.09;;;1.82;100.00
19447;BME280;9862;49.462;11.054;2023-01-30T10:22:44;98067.25;;;1.81;100.00
19447;BME280;9862;49.462;11.054;2023-01-30T10:25:23;98084.97;;;1.79;100.00
19447;BME280;9862;49.462;11.054;2023-01-30T10:27:56;98087.34;;;1.90;100.00
19447;BME280;9862;49.462;11.054;2023-01-30T10:30:24;98090.34;;;1.95;100.00
19447;BME280;9862;49.462;11.054;2023-01-30T10:32:53;98086.75;;;1.96;100.00
19447;BME280;9862;49.462;11.054;2023-01-30T10:35:26;98076.25;;;1.96;100.00
19447;BME280;9862;49.462;11.054;2023-01-30T10:37:59;98072.97;;;1.94;100.00
19447;BME280;9862;49.462;11.054;2023-01-30T10:40:34;98069.34;;;1.95;100.00
19447;BME280;9862;49.462;11.054;2023-01-30T10:43:11;98070.53;;;2.00;100.00
19447;BME280;9862;49.462;11.054;2023-01-30T10:45:44;98065.94;;;2.03;100.00
19447;BME280;9862;49.462;11.054;2023-01-30T10:48:25;98072.69;;;2.05;100.00
19447;BME280;9862;49.462;11.054;2023-01-30T10:50:58;98067.78;;;2.10;100.00
19447;BME280;9862;49.462;11.054;2023-01-30T10:53:34;98064.41;;;2.18;100.00
19447;BME280;9862;49.462;11.054;2023-01-30T10:56:11;98074.41;;;2.14;100.00
19447;BME280;9862;49.462;11.054;2023-01-30T10:58:43;98083.44;;;2.20;100.00
19447;BME280;9862;49.462;11.054;2023-01-30T11:01:18;98087.06;;;2.19;100.00
19447;BME280;9862;49.462;11.054;2023-01-30T11:03:51;98083.16;;;2.23;100.00
19447;BME280;9862;49.462;11.054;2023-01-30T11:06:22;98072.50;;;2.24;100.00
19447;BME280;9862;49.462;11.054;2023-01-30T11:08:50;98073.00;;;2.28;100.00
19447;BME280;9862;49.462;11.054;2023-01-30T11:11:29;98073.22;;;2.35;100.00
19447;BME280;9862;49.462;11.054;2023-01-30T11:14:04;98062.56;;;2.36;100.00
19447;BME280;9862;49.462;11.054;2023-01-30T11:16:32;98055.16;;;2.40;100.00
19447;BME280;9862;49.462;11.054;2023-01-30T11:19:04;98058.63;;;2.40;100.00
19447;BME280;9862;49.462;11.054;2023-01-30T11:21:31;98051.53;;;2.33;100.00
19447;BME280;9862;49.462;11.054;2023-01-30T11:24:03;98060.09;;;2.35;100.00
19447;BME280;9862;49.462;11.054;2023-01-30T11:26:34;98052.50;;;2.32;100.00
19447;BME280;9862;49.462;11.054;2023-01-30T11:29:14;98060.13;;;2.43;100.00
19447;BME280;9862;49.462;11.054;2023-01-30T11:31:48;98056.69;;;2.42;100.00
19447;BME280;9862;49.462;11.054;2023-01-30T11:34:17;98057.19;;;2.46;100.00
19447;BME280;9862;49.462;11.054;2023-01-30T11:36:44;98063.75;;;2.50;100.00
19447;BME280;9862;49.462;11.054;2023-01-30T11:39:19;98061.28;;;2.48;100.00
19447;BME280;9862;49.462;11.054;2023-01-30T11:41:57;98053.63;;;2.55;100.00
19447;BME280;9862;49.462;11.054;2023-01-30T11:44:26;98055.63;;;2.61;100.00
19447;BME280;9862;49.462;11.054;2023-01-30T11:46:53;98054.13;;;2.58;100.00
19447;BME280;9862;49.462;11.054;2023-01-30T11:49:24;98054.06;;;2.50;100.00
19447;BME280;9862;49.462;11.054;2023-01-30T11:51:54;98048.47;;;2.45;100.00
19447;BME280;9862;49.462;11.054;2023-01-30T11:54:25;98045.38;;;2.50;100.00
19447;BME280;9862;49.462;11.054;2023-01-30T11:56:56;98051.59;;;2.49;100.00
19447;BME280;9862;49.462;11.054;2023-01-30T11:59:26;98046.69;;;2.46;100.00
19447;BME280;9862;49.462;11.054;2023-01-30T12:02:02;98048.53;;;2.53;100.00
19447;BME280;9862;49.462;11.054;2023-01-30T12:04:30;98047.38;;;2.56;100.00
19447;BME280;9862;49.462;11.054;2023-01-30T12:07:04;98047.06;;;2.59;100.00
19447;BME280;9862;49.462;11.054;2023-01-30T12:09:32;98059.53;;;2.57;100.00
19447;BME280;9862;49.462;11.054;2023-01-30T12:12:01;98048.56;;;2.70;100.00
19447;BME280;9862;49.462;11.054;2023-01-30T12:14:36;98060.44;;;2.74;100.00
19447;BME280;9862;49.462;11.054;2023-01-30T12:17:10;98066.88;;;2.87;100.00
19447;BME280;9862;49.462;11.054;2023-01-30T12:19:47;98064.78;;;2.91;100.00
19447;BME280;9862;49.462;11.054;2023-01-30T12:22:21;98053.06;;;2.85;100.00
19447;BME280;9862;49.462;11.054;2023-01-30T12:24:57;98039.78;;;2.87;100.00
19447;BME280;9862;49.462;11.054;2023-01-30T12:27:32;98039.81;;;2.95;100.00
19447;BME280;9862;49.462;11.054;2023-01-30T12:30:09;98040.59;;;2.87;100.00
19447;BME280;9862;49.462;11.054;2023-01-30T12:32:42;98042.06;;;2.82;100.00
19447;BME280;9862;49.462;11.054;2023-01-30T12:35:14;98035.34;;;2.87;100.00
19447;BME280;9862;49.462;11.054;2023-01-30T12:37:53;98032.06;;;2.85;100.00
19447;BME280;9862;49.462;11.054;2023-01-30T12:40:33;98034.38;;;2.97;100.00
19447;BME280;9862;49.462;11.054;2023-01-30T12:43:25;98032.09;;;2.94;100.00
19447;BME280;9862;49.462;11.054;2023-01-30T12:46:03;98033.22;;;2.91;100.00
19447;BME280;9862;49.462;11.054;2023-01-30T12:48:47;98031.75;;;2.97;100.00
19447;BME280;9862;49.462;11.054;2023-01-30T12:51:26;98046.25;;;3.01;100.00
19447;BME280;9862;49.462;11.054;2023-01-30T12:54:05;98027.34;;;3.05;100.00
19447;BME280;9862;49.462;11.054;2023-01-30T12:56:51;98056.09;;;3.07;100.00
19447;BME280;9862;49.462;11.054;2023-01-30T12:59:26;98056.63;;;3.10;100.00
19447;BME280;9862;49.462;11.054;2023-01-30T13:02:12;98070.56;;;3.03;100.00
19447;BME280;9862;49.462;11.054;2023-01-30T13:04:50;98054.78;;;3.03;100.00
19447;BME280;9862;49.462;11.054;2023-01-30T13:07:25;98049.31;;;2.96;100.00
19447;BME280;9862;49.462;11.054;2023-01-30T13:10:02;98052.13;;;2.95;100.00
19447;BME280;9862;49.462;11.054;2023-01-30T13:12:37;98056.75;;;3.01;100.00
19447;BME280;9862;49.462;11.054;2023-01-30T13:15:15;98024.88;;;3.04;100.00
19447;BME280;9862;49.462;11.054;2023-01-30T13:17:50;98033.41;;;3.06;100.00
19447;BME280;9862;49.462;11.054;2023-01-30T13:20:38;98019.63;;;3.12;100.00
19447;BME280;9862;49.462;11.054;2023-01-30T13:23:15;98049.53;;;3.11;100.00